Pascola, Missouri
Current Conditions -  °F | °C
As of 2:53 AM on Sunday 26 Oct 2014 (Local Time) from KHKA Reporting Station
Clear Clear  
Wind Chill: 17°   Ceiling: Unl
Heat Index: 17°   Visibility: 8mi
Dew Point: 17°   Wind: 6mph
Humidity: 97%   Direction: 190°S
Pressure: 29.99"   Gusts: NA
Location:  36.27°N, 89.83°W
Report Text: KHKA 260753Z AUTO 19005KT 8SM CLR 17/17 A2999 RMK AO2 SLP154 T01720167
Loading
Personal Weather Stations






























Interactive Weather Map
Tropical Storm Tracking
New forecast layout! Learn more

10-Day Weather Forecast

Advertisements
Track Severe Weather on mobile